x

Monterey - 27nm Wnw Of Monterey, Ca (46042) Wave Buoy

6:50am - Sat 21st Apr 2018 All times are PDT. -7 hours from GMT.

  • Sig Wave height 8.2ft
  • Swell Direction
  • Peak Period 8s
  • Average Period 6s
  • Wind
    18mph, 22mph gusts
  • Sea Temp 53°f
  • Air Temp 53°f
  • Sea Pressure 1020mb
  • Monterey - 27nm Wnw Of Monterey, Ca
  • Monterey - 27nm Wnw Of Monterey, Ca

More Historic Weather Station data

Upgrade to MSW Pro to gain access to the past 30 days of data for over 8000 Wavebouys and Weather Stations around the globe.

Join

Comparision Forecast

View Surf forecast
   
Sat 04/21 6:50am 8ft 8s 6s 18 22 mph 1020mb 53f 53f
5:50am 10ft 8s 7s 22 27 mph 1019.7mb 53f 53f
4:50am 8.5ft 17s 6s 25 29 mph 1019.8mb 53f 53f
3:50am 9ft 8s 7s 22 27 mph 1020.5mb 54f 53f
2:50am 7ft 9s 6s 18 22 mph 1021mb 54f 53f
1:50am 7.5ft 8s 6s 18 22 mph 1021.6mb 54f 53f
12:50am 8ft 8s 7s 18 22 mph 1022mb 54f 54f
Fri 04/20 11:50pm 7ft 8s 6s 18 22 mph 1022.2mb 54f 54f
10:50pm 6.5ft 7s 6s 18 20 mph 1022.4mb 54f 54f
9:50pm 7ft 10s 6s 20 25 mph 1022.3mb 55f 54f
8:50pm 7ft 10s 6s 22 27 mph 1021.4mb 55f 54f
7:50pm 7.5ft 10s 6s 27 31 mph 1021mb 55f 54f
6:50pm 8ft 10s 6s 27 34 mph 1020.6mb 55f 54f
5:50pm 7ft 10s 6s 27 34 mph 1020.1mb 55f 53f
4:50pm 7ft 11s 5s 25 29 mph 1020.5mb 55f 54f
3:50pm 8ft 11s 6s 25 31 mph 1021.2mb 55f 54f
2:50pm 6.5ft 8s 6s 25 29 mph 1021.5mb 55f 54f
1:50pm 6.5ft 11s 6s 20 22 mph 1021.9mb 55f 54f
12:50pm 6ft 8s 7s 18 20 mph 1022.5mb 55f 54f
11:50am 6.5ft 9s 7s 13 16 mph 1022.7mb 55f 53f
10:50am 6.5ft 8s 7s 9 11 mph 1022.9mb 54f 52f
9:50am 7ft 8s 7s 9 11 mph 1022.8mb 54f 52f
8:50am 7ft 9s 7s 11 16 mph 1022.7mb 54f 52f
7:50am 7.5ft 8s 7s 11 16 mph 1022.4mb 54f 52f
6:50am 7.5ft 8s 7s 11 13 mph 1021.8mb 54f 52f
5:50am 8ft 8s 7s 11 16 mph 1021.1mb 54f 52f
4:50am 9ft 9s 7s 13 18 mph 1021.1mb 54f 53f
3:50am 9ft 9s 7s 13 16 mph 1021.1mb 54f 53f
2:50am 8.5ft 8s 7s 13 18 mph 1020.6mb 54f 52f
1:50am 9ft 11s 7s 13 18 mph 1021mb 54f 53f
12:50am 10ft 8s 7s 16 18 mph 1020.7mb 54f 53f
Thu 04/19 11:50pm 9.5ft 8s 7s 18 20 mph 1020.9mb 54f 53f
10:50pm 9.5ft 9s 7s 20 25 mph 1020.8mb 54f 54f
9:50pm 9ft 9s 6s 20 25 mph 1020.4mb 54f 54f
8:50pm 8.5ft 9s 6s 22 27 mph 1019.9mb 54f 54f
7:50pm 9ft 8s 6s 25 29 mph 1019.5mb 54f 54f
6:50pm 8.5ft 8s 6s 25 29 mph 1019.6mb 54f 54f
5:50pm 9ft 8s 6s 25 29 mph 1019.8mb 54f 54f
4:50pm 8ft 8s 6s 22 27 mph 1019.8mb 54f 54f
3:50pm 8ft 8s 6s 22 27 mph 1020.1mb 54f 54f
2:50pm 8ft 8s 6s 22 27 mph 1020.3mb 54f 54f
1:50pm 8ft 8s 6s 22 25 mph 1020.5mb 54f 54f
12:50pm 7ft 14s 6s 20 25 mph 1020.7mb 54f 54f
11:50am 6ft 8s 6s 20 25 mph 1020.8mb 54f 54f
10:50am 6ft 14s 6s 18 22 mph 1020.2mb 55f 54f
9:50am 5.5ft 14s 6s 16 18 mph 1019.7mb 55f 54f
8:50am 5ft 6s 5s 18 20 mph 1019.1mb 54f 53f
7:50am 5ft 15s 5s 18 22 mph 1018.7mb 54f 53f
6:50am 4.5ft 15s 5s 18 22 mph 1018.3mb 54f 53f
5:50am 4.5ft 15s 5s 18 20 mph 1017.8mb 54f 53f
4:50am 4.5ft 15s 6s 16 20 mph 1017.4mb 54f 52f
3:50am 4.5ft 9s 6s 13 18 mph 1017.1mb 55f 52f
2:50am 4.5ft 10s 7s 16 18 mph 1016.9mb 54f 52f
1:50am 4ft 10s 7s 13 16 mph 1016.9mb 54f 52f
12:50am 4.5ft 11s 7s 11 13 mph 1016.8mb 55f 52f
Wed 04/18 11:50pm 4ft 10s 7s 7 9 mph 1016.7mb 55f 52f
10:50pm 4.5ft 9s 8s 7 7 mph 1016.4mb 55f 52f
9:50pm 4.5ft 10s 8s 4 4 mph 1016.5mb 55f 53f
8:50pm 4.5ft 10s 8s 4 7 mph 1016.2mb 55f 53f
7:50pm 5ft 11s 8s 2 4 mph 1016.4mb 55f 53f
6:50pm 5ft 10s 7s 4 7 mph 1016.5mb 55f 53f
5:50pm 5ft 11s 7s 7 9 mph 1017mb 55f 54f
4:50pm 6ft 10s 7s 7 9 mph 1017.5mb 55f 54f
3:50pm 6.5ft 10s 7s 13 16 mph 1018.1mb 54f 53f
2:50pm 6ft 10s 7s 13 16 mph 1018.6mb 54f 53f
1:50pm 5.5ft 10s 6s 13 18 mph 1019mb 54f 53f
12:50pm 7ft 10s 7s 13 16 mph 1019.4mb 54f 53f
11:50am 6.5ft 10s  -  13 16 mph 1019.8mb 54f 53f
10:50am 7ft 11s 7s 16 20 mph 1019.7mb 54f 53f
9:50am 7.5ft 11s 7s 16 18 mph 1019.7mb 54f 52f
8:50am 7ft 11s 7s 16 20 mph 1019.5mb 54f 52f
7:50am 7ft 10s 7s 16 20 mph 1019.5mb 54f 52f
6:50am 8ft 11s 7s 18 20 mph 1019.1mb 54f 52f
5:50am 7.5ft 11s 7s 18 20 mph 1019.2mb 54f 52f
4:50am 7.5ft 11s 7s 18 22 mph 1019.4mb 54f 52f
3:50am 8ft 11s 7s 18 20 mph 1019.7mb 54f 52f
2:50am 7.5ft 11s 7s 16 20 mph 1020.2mb 54f 52f
1:50am 8ft 11s 7s 18 20 mph 1020.5mb 54f 52f
12:50am 7.5ft 10s 7s 18 22 mph 1020.9mb 54f 52f
Tue 04/17 11:50pm 8.5ft 12s 7s 20 25 mph 1021.3mb 55f 52f
10:50pm 9ft 11s 7s 20 25 mph 1021.6mb 55f 53f
9:50pm 8ft 12s 7s 20 25 mph 1022mb 55f 53f
8:50pm 8ft 12s 7s 22 25 mph 1022.1mb 55f 53f
7:50pm 8.5ft 11s 7s 20 25 mph 1022.5mb 55f 53f
6:50pm 8ft 11s 7s 18 22 mph 1023mb 56f 53f
5:50pm 8.5ft 12s 8s 18 20 mph 1023.6mb 56f 53f
4:50pm 9.5ft 12s 8s 18 20 mph 1024.2mb 56f 53f
3:50pm 8ft 12s 8s 13 18 mph 1025.3mb 56f 53f